Belle Isle — FOXN — position and weather

sailwx.info

Track history (hours):
 
Tides and Currents Weather Stations Pressure Air Temp Water Temp Dewpoint Dewpoint Depression Visibility Wind Speed Wind Dir Waves Ship Positions

Belle Isle

Last reported at 2017-May-22 17:48 UTC. Time now 2017-May-23 16:55 UTC.
Position N 47°21' W 003°09'.

Length 16 m.

Type: SAR. MMSI: 227021500.

Date/timePositionNaut miles runAvg speedWind from/ knotsBaromVisibWave heightAir tempDewpointWater temp
2017-May-22 17:48N 47°21' W 003°09'516.8
2017-May-22 17:30N 47°26' W 003°08'0 0.5
2017-May-22 17:00N 47°26' W 003°08'510.0
2017-May-22 16:30N 47°21' W 003°09'0 0.1
2017-May-22 15:24N 47°21' W 003°09'718.3
2017-May-22 15:00N 47°26' W 003°02'1413.9
2017-May-22 14:00N 47°37' W 002°49'1 1.5
2017-May-22 13:30N 47°37' W 002°50'3 5.3
2017-May-22 13:00N 47°35' W 002°53'2 4.8
2017-May-22 12:30N 47°33' W 002°55'1 2.4
2017-May-22 12:00N 47°32' W 002°54'713.3
2017-May-22 11:31N 47°28' W 003°02'816.6
2017-May-22 11:00N 47°21' W 003°09'  
2017-May-15 22:19N 47°21' W 003°09'514.2
2017-May-15 22:00N 47°21' W 003°03'510.5
2017-May-15 21:30N 47°23' W 003°09'2 4.8
2017-May-15 21:00N 47°21' W 003°09'0 0.0
2017-May-14 08:45N 47°21' W 003°09'210.3
2017-May-14 08:30N 47°23' W 003°09'510.8
2017-May-14 08:00N 47°29' W 003°07'713.9
2017-May-14 07:30N 47°22' W 003°08'  
Track history (hours):
 
Tides and Currents Weather Stations Pressure Air Temp Water Temp Dewpoint Dewpoint Depression Visibility Wind Speed Wind Dir Waves Ship Positions

Belle Isle

Last reported at 2017-May-22 17:48 UTC. Time now 2017-May-23 16:55 UTC.
Position N 47°21' W 003°09'.

Length 16 m.

Type: SAR. MMSI: 227021500.

Date/timePositionNaut miles runAvg speedWind from/ knotsBaromVisibWave heightAir tempDewpointWater temp
2017-May-22 17:48N 47°21' W 003°09'516.8
2017-May-22 17:30N 47°26' W 003°08'0 0.5
2017-May-22 17:00N 47°26' W 003°08'510.0
2017-May-22 16:30N 47°21' W 003°09'0 0.1
2017-May-22 15:24N 47°21' W 003°09'718.3
2017-May-22 15:00N 47°26' W 003°02'1413.9
2017-May-22 14:00N 47°37' W 002°49'1 1.5
2017-May-22 13:30N 47°37' W 002°50'3 5.3
2017-May-22 13:00N 47°35' W 002°53'2 4.8
2017-May-22 12:30N 47°33' W 002°55'1 2.4
2017-May-22 12:00N 47°32' W 002°54'713.3
2017-May-22 11:31N 47°28' W 003°02'816.6
2017-May-22 11:00N 47°21' W 003°09'  
2017-May-15 22:19N 47°21' W 003°09'514.2
2017-May-15 22:00N 47°21' W 003°03'510.5
2017-May-15 21:30N 47°23' W 003°09'2 4.8
2017-May-15 21:00N 47°21' W 003°09'0 0.0
2017-May-14 08:45N 47°21' W 003°09'210.3
2017-May-14 08:30N 47°23' W 003°09'510.8
2017-May-14 08:00N 47°29' W 003°07'713.9
2017-May-14 07:30N 47°22' W 003°08'  

Dump ship's entire track history